Time;durP1;ratioP1;P1;durP2;ratioP2;P2;SDS_P1;SDS_P2;PMS_P1;PMS_P2;Temp;Humidity;BMP_temperature;BMP_pressure;BME280_temperature;BME280_humidity;BME280_pressure;Samples;Min_cycle;Max_cycle;Signal;HPM_P1;HPM_P2
2024/04/07 06:21:07;;;;;;;;;;;;;;;;;;;;;
2024/04/07 06:23:59;;;;;;;0.00;0.00;;;;;;;10.60;96.76;99430.44;4876887;29;20047;-79
2024/04/07 06:34:30;;;;;;;;;;;;;;;;;;;;;
2024/04/07 06:36:47;;;;;;;0.10;0.10;;;;;;;10.43;97.85;99419.97;4829409;29;20045;-75
2024/04/07 06:42:49;;;;;;;0.00;0.00;;;;;;;10.87;97.13;99472.81;4811801;29;20060;-75
2024/04/07 06:45:15;;;;;;;0.00;0.00;;;;;;;10.59;95.92;99426.09;4822594;29;20054;-77
2024/04/07 06:48:43;;;;;;;0.00;0.00;;;;;;;10.64;96.12;99441.59;4836671;29;20030;-76
2024/04/07 06:55:00;;;;;;;;;;;;;;;;;;;;;
2024/04/07 06:57:32;;;;;;;0.00;0.00;;;;;;;10.87;96.59;99504.81;4854017;29;20047;-76
2024/04/07 07:04:41;;;;;;;;;;;;;;;;;;;;;
2024/04/07 07:07:55;;;;;;;0.00;0.00;;;;;;;10.52;96.02;99450.22;4864195;29;20032;-77
2024/04/07 07:11:00;;;;;;;;;;;;;;;;;;;;;
2024/04/07 07:14:28;;;;;;;;;;;;;;;;;;;;;
2024/04/07 07:16:43;;;;;;;0.00;0.00;;;;;;;10.82;95.59;99486.53;4849341;29;20029;-76
2024/04/07 07:19:21;;;;;;;;;;;;;;;;;;;;;
2024/04/07 07:22:20;;;;;;;0.00;0.00;;;;;;;10.84;94.05;99470.66;4858685;29;20037;-77
2024/04/07 07:24:45;;;;;;;0.00;0.00;;;;;;;10.79;93.52;99467.97;4823945;29;20041;-76
2024/04/07 07:27:52;;;;;;;;;;;;;;;;;;;;;
2024/04/07 07:33:14;;;;;;;0.00;0.00;;;;;;;10.92;92.53;99475.50;4859757;29;20059;-76
2024/04/07 07:35:43;;;;;;;0.10;0.10;;;;;;;11.18;91.72;99549.03;4859870;29;20052;-76
2024/04/07 07:45:25;;;;;;;0.00;0.00;;;;;;;11.24;90.55;99493.13;4799793;29;20406;-76
2024/04/07 07:47:59;;;;;;;0.00;0.00;;;;;;;11.38;90.82;99531.56;4780044;29;20050;-75
2024/04/07 07:51:10;;;;;;;0.00;0.00;;;;;;;11.33;92.36;99550.78;4781063;29;20031;-76
2024/04/07 07:54:14;;;;;;;;;;;;;;;;;;;;;
2024/04/07 07:57:24;;;;;;;;;;;;;;;;;;;;;
2024/04/07 08:00:46;;;;;;;0.00;0.00;;;;;;;10.85;100.00;99543.41;4766418;29;20036;-76
2024/04/07 08:03:37;;;;;;;0.10;0.10;;;;;;;10.76;99.04;99509.56;4749352;30;20040;-76
2024/04/07 08:06:23;;;;;;;0.00;0.00;;;;;;;10.54;99.81;99513.63;4743867;29;20043;-76
2024/04/07 08:09:21;;;;;;;0.00;0.00;;;;;;;10.96;99.85;99580.47;4793184;29;20067;-75
2024/04/07 08:12:33;;;;;;;0.00;0.00;;;;;;;10.86;96.77;99547.75;4779934;29;20122;-75
2024/04/07 08:14:58;;;;;;;0.00;0.00;;;;;;;10.87;97.14;99483.75;4760852;29;20097;-77
2024/04/07 08:17:24;;;;;;;0.00;0.00;;;;;;;11.28;94.53;99559.88;4785460;29;20598;-76
2024/04/07 08:19:54;;;;;;;0.00;0.00;;;;;;;11.10;94.21;99495.78;4799471;29;20174;-76
2024/04/07 08:22:19;;;;;;;0.00;0.00;;;;;;;11.34;93.35;99520.38;4844255;29;20185;-76
2024/04/07 08:25:05;;;;;;;;;;;;;;;;;;;;;
2024/04/07 08:27:50;;;;;;;;;;;;;;;;;;;;;
2024/04/07 08:30:15;;;;;;;0.00;0.00;;;;;;;11.58;92.00;99541.44;4879605;29;20025;-75
2024/04/07 08:33:22;;;;;;;;;;;;;;;;;;;;;
2024/04/07 08:35:50;;;;;;;0.00;0.00;;;;;;;11.81;89.85;99530.72;4862478;29;20450;-76
2024/04/07 08:38:18;;;;;;;0.00;0.00;;;;;;;12.08;88.33;99540.22;4845556;29;20049;-77
2024/04/07 08:40:49;;;;;;;0.00;0.00;;;;;;;12.25;87.65;99525.97;4872792;29;20940;-77
2024/04/07 08:43:33;;;;;;;0.00;0.00;;;;;;;12.31;86.46;99535.72;4855405;29;20113;-76
2024/04/07 08:46:20;;;;;;;0.00;0.00;;;;;;;12.16;85.93;99517.59;4883172;29;20053;-77
2024/04/07 08:49:31;;;;;;;;;;;;;;;;;;;;;
2024/04/07 08:52:56;;;;;;;;;;;;;;;;;;;;;
2024/04/07 08:55:33;;;;;;;0.00;0.00;;;;;;;12.09;86.44;99506.22;4867388;29;20026;-77
2024/04/07 08:58:14;;;;;;;;;;;;;;;;;;;;;
2024/04/07 09:00:44;;;;;;;0.00;0.00;;;;;;;13.15;80.47;99476.31;4868124;29;20039;-78
2024/04/07 09:03:40;;;;;;;0.00;0.00;;;;;;;13.79;75.70;99532.06;4868606;29;20049;-76
2024/04/07 09:07:01;;;;;;;0.00;0.00;;;;;;;14.07;74.76;99553.97;4867102;29;20066;-78
2024/04/07 09:10:21;;;;;;;0.00;0.00;;;;;;;14.64;71.56;99556.19;4860438;29;20854;-77
2024/04/07 09:19:58;;;;;;;0.00;0.00;;;;;;;14.49;67.87;99504.31;4770268;29;20056;-77
2024/04/07 09:22:53;;;;;;;0.00;0.00;;;;;;;14.62;67.80;99516.38;4753304;29;20036;-77
2024/04/07 09:25:56;;;;;;;;;;;;;;;;;;;;;
2024/04/07 09:55:58;;;;;;;0.00;0.00;;;;;;;15.34;65.61;99597.84;2704962;27;20496;-78
2024/04/07 09:58:53;;;;;;;0.00;0.00;;;;;;;15.31;64.91;99597.69;4873254;29;20041;-77
2024/04/07 10:01:21;;;;;;;;;;;;;;;15.48;65.54;99606.00;4852696;29;20041;-78
2024/04/07 10:04:30;;;;;;;0.00;0.00;;;;;;;15.28;64.25;99570.78;4874268;29;19924;-77
2024/04/07 10:06:59;;;;;;;0.00;0.00;;;;;;;14.80;64.95;99540.09;4882817;29;20060;-77
2024/04/07 10:09:38;;;;;;;;;;;;;;;;;;;;;
2024/04/07 10:12:04;;;;;;;0.00;0.00;;;;;;;15.58;62.00;99596.63;4870402;29;20051;-76
2024/04/07 10:14:41;;;;;;;0.00;0.00;;;;;;;15.29;62.06;99558.63;4877187;29;20512;-77
2024/04/07 10:17:29;;;;;;;0.00;0.00;;;;;;;15.28;62.11;99593.59;4859989;29;20041;-77
2024/04/07 10:19:56;;;;;;;0.00;0.00;;;;;;;15.90;60.97;99618.63;4855382;29;20041;-77
2024/04/07 10:22:23;;;;;;;0.00;0.00;;;;;;;15.91;59.38;99565.13;4859559;29;20120;-78
2024/04/07 10:25:18;;;;;;;0.00;0.00;;;;;;;15.29;60.80;99561.38;4876083;29;20041;-76
2024/04/07 10:28:04;;;;;;;0.00;0.00;;;;;;;15.50;63.08;99600.97;4862754;29;20041;-77
2024/04/07 10:30:34;;;;;;;0.00;0.00;;;;;;;15.71;62.25;99605.91;4877726;29;20128;-77
2024/04/07 10:33:02;;;;;;;0.00;0.00;;;;;;;15.80;61.46;99590.22;4844850;29;20460;-78
2024/04/07 10:35:50;;;;;;;0.00;0.00;;;;;;;15.39;62.83;99561.09;4881906;29;20025;-79
2024/04/07 10:38:25;;;;;;;0.00;0.00;;;;;;;15.32;63.59;99571.75;4873265;29;20673;-77
2024/04/07 10:41:36;;;;;;;0.00;0.00;;;;;;;15.46;64.91;99589.00;4866962;29;20089;-78
2024/04/07 10:51:25;;;;;;;0.00;0.00;;;;;;;14.56;67.40;99531.34;4848035;29;20499;-78
2024/04/07 10:59:01;;;;;;;;;;;;;;;;;;;;;
2024/04/07 11:01:48;;;;;;;0.00;0.00;;;;;;;14.40;70.61;99556.50;4871330;29;20045;-79
2024/04/07 11:04:29;;;;;;;0.00;0.00;;;;;;;14.93;70.19;99592.63;4880751;29;20025;-79
2024/04/07 11:06:55;;;;;;;0.00;0.00;;;;;;;14.95;69.63;99563.66;4878529;29;20479;-79
2024/04/07 11:09:41;;;;;;;0.00;0.00;;;;;;;14.89;67.92;99548.41;4872474;29;20116;-81
2024/04/07 11:12:15;;;;;;;0.00;0.00;;;;;;;14.37;69.18;99636.91;4876103;29;20045;-78
2024/04/07 11:14:41;;;;;;;0.00;0.00;;;;;;;13.77;71.54;99559.06;4883311;29;20021;-77
2024/04/07 11:17:06;;;;;;;0.00;0.00;;;;;;;13.69;73.75;99558.97;4852255;29;20101;-77
2024/04/07 11:19:53;;;;;;;0.00;0.00;;;;;;;13.82;73.00;99560.06;4859562;29;20479;-76
2024/04/07 11:22:18;;;;;;;0.00;0.00;;;;;;;13.67;73.57;99540.06;4851365;29;20025;-77
2024/04/07 11:24:44;;;;;;;0.10;0.10;;;;;;;13.68;74.19;99551.84;4881366;29;20040;-77
2024/04/07 11:33:46;;;;;;;0.00;0.00;;;;;;;13.25;78.82;99547.50;4861960;29;20391;-78
2024/04/07 11:44:09;;;;;;;;;;;;;;;;;;;;;
2024/04/07 12:23:03;;;;;;;;;;;;;;;;;;;;;
2024/04/07 12:29:11;;;;;;;0.00;0.00;;;;;;;16.26;61.15;99589.97;4852878;29;20038;-79
2024/04/07 12:31:54;;;;;;;;;;;;;;;;;;;;;
2024/04/07 12:34:23;;;;;;;0.00;0.00;;;;;;;16.87;61.20;99593.47;4855373;29;20049;-79
2024/04/07 12:36:51;;;;;;;0.00;0.00;;;;;;;16.99;59.11;99614.09;4849866;29;20065;-78
2024/04/07 15:26:38;;;;;;;0.00;0.00;;;;;;;19.33;48.03;99554.53;4768031;29;20038;-82
2024/04/07 15:29:25;;;;;;;0.00;0.00;;;;;;;18.53;49.87;99552.16;4806299;29;20088;-78
2024/04/07 15:42:37;;;;;;;;;;;;;;;;;;;;;
2024/04/07 15:45:17;;;;;;;0.00;0.00;;;;;;;19.42;46.07;99525.88;4800174;29;20065;-76
2024/04/07 15:48:38;;;;;;;0.00;0.00;;;;;;;18.25;49.06;99567.41;4767229;30;20059;-77
2024/04/07 16:06:39;;;;;;;0.00;0.00;;;;;;;16.47;56.05;99571.59;4687971;30;20044;-78
2024/04/07 16:10:11;;;;;;;0.00;0.00;;;;;;;16.38;56.36;99579.91;4697798;30;20033;-77
2024/04/07 16:12:36;;;;;;;0.00;0.00;;;;;;;16.10;56.54;99529.75;4697231;30;20056;-76
2024/04/07 16:15:04;;;;;;;0.00;0.00;;;;;;;16.01;57.05;99559.28;4733506;30;20044;-76
2024/04/07 16:17:40;;;;;;;0.00;0.00;;;;;;;15.88;57.87;99509.47;4740602;29;20768;-76
2024/04/07 16:20:18;;;;;;;;;;;;;;;;;;;;;
2024/04/07 16:22:46;;;;;;;0.00;0.00;;;;;;;16.82;56.31;99573.47;4858934;29;20030;-75
2024/04/07 16:25:17;;;;;;;0.10;0.10;;;;;;;16.86;56.28;99588.25;4840821;29;20061;-75
2024/04/07 16:48:23;;;;;;;0.00;0.00;;;;;;;15.97;60.50;99539.81;4936674;23;20172;-75
2024/04/07 16:50:59;;;;;;;0.00;0.00;;;;;;;16.08;59.50;99569.81;4869950;29;20049;-75
2024/04/07 16:53:25;;;;;;;0.00;0.00;;;;;;;15.48;60.84;99542.63;4872290;29;20029;-76
2024/04/07 16:55:51;;;;;;;0.00;0.00;;;;;;;15.21;61.99;99553.91;4873992;29;20025;-78
2024/04/07 16:58:16;;;;;;;0.00;0.00;;;;;;;14.73;62.67;99536.97;4872432;29;20025;-78
2024/04/07 17:00:48;;;;;;;0.00;0.00;;;;;;;14.75;63.26;99576.03;4871872;29;20037;-81
2024/04/07 17:03:29;;;;;;;;;;;;;;;;;;;;;
2024/04/07 17:05:55;;;;;;;0.10;0.10;;;;;;;14.89;62.45;99542.09;4869276;29;20017;-77
2024/04/07 17:08:20;;;;;;;0.00;0.00;;;;;;;14.93;63.53;99587.13;4870389;29;20124;-79
2024/04/07 17:10:59;;;;;;;;;;;;;;;;;;;;;
2024/04/07 17:13:32;;;;;;;0.00;0.00;;;;;;;14.14;65.49;99518.63;4866950;29;20636;-78
2024/04/07 17:16:10;;;;;;;;;;;;;;;;;;;;;
2024/04/07 17:18:53;;;;;;;0.00;0.00;;;;;;;14.30;66.40;99538.31;4858948;29;20028;-77
2024/04/07 17:21:18;;;;;;;0.00;0.00;;;;;;;14.85;64.74;99536.41;4874782;29;20117;-79
2024/04/07 17:23:44;;;;;;;0.00;0.00;;;;;;;14.59;65.10;99578.31;4852674;29;20045;-80
2024/04/07 17:26:12;;;;;;;0.00;0.00;;;;;;;14.30;65.83;99576.00;4858652;29;20029;-79
2024/04/07 17:28:38;;;;;;;0.00;0.00;;;;;;;13.77;67.80;99548.06;4871336;29;20028;-79
2024/04/07 17:31:05;;;;;;;0.00;0.00;;;;;;;13.43;70.04;99537.53;4862172;29;20086;-80
2024/04/07 17:33:33;;;;;;;0.00;0.00;;;;;;;13.46;71.29;99558.88;4867159;29;20029;-78
2024/04/07 17:36:08;;;;;;;0.00;0.00;;;;;;;13.43;72.17;99571.31;4879169;29;20089;-79
2024/04/07 17:38:56;;;;;;;0.00;0.00;;;;;;;13.14;72.18;99541.41;4876124;29;20111;-78
2024/04/07 17:41:23;;;;;;;0.10;0.10;;;;;;;12.91;73.99;99526.75;4862389;29;20040;-78
2024/04/07 17:43:49;;;;;;;0.00;0.00;;;;;;;12.98;74.60;99543.63;4861532;29;20189;-79
2024/04/07 18:02:06;;;;;;;0.00;0.00;;;;;;;12.33;80.26;99550.78;4779759;29;20033;-80
2024/04/07 18:05:07;;;;;;;0.00;0.00;;;;;;;12.02;81.26;99507.41;4874828;29;20056;-78
2024/04/07 18:07:43;;;;;;;0.00;0.00;;;;;;;12.13;81.70;99545.63;4868834;29;20041;-78
2024/04/07 18:10:09;;;;;;;0.00;0.00;;;;;;;12.03;82.46;99500.00;4857634;29;20029;-76
2024/04/07 18:12:35;;;;;;;0.00;0.00;;;;;;;11.92;82.59;99479.34;4857961;29;20022;-76
2024/04/07 18:15:36;;;;;;;;;;;;;;;;;;;;;
2024/04/07 18:21:37;;;;;;;;;;;;;;;;;;;;;
2024/04/07 18:24:12;;;;;;;0.00;0.00;;;;;;;11.74;86.56;99497.41;4878580;29;20039;-76
2024/04/07 18:26:50;;;;;;;;;;;;;;;;;;;;;
2024/04/07 18:29:29;;;;;;;0.00;0.00;;;;;;;11.94;87.59;99532.72;4826075;29;20069;-77
2024/04/07 18:32:22;;;;;;;0.00;0.00;;;;;;;11.87;88.46;99563.22;4842480;29;20037;-75
2024/04/07 18:36:07;;;;;;;0.00;0.00;;;;;;;11.70;89.92;99544.56;4869151;29;20094;-75
2024/04/07 18:38:44;;;;;;;0.00;0.00;;;;;;;11.69;90.67;99559.34;4855830;29;20041;-74
2024/04/07 18:41:10;;;;;;;0.00;0.00;;;;;;;11.77;91.45;99544.19;4871442;29;20120;-75
2024/04/07 18:43:45;;;;;;;0.00;0.00;;;;;;;11.55;91.34;99522.88;4868582;29;20133;-75
2024/04/07 18:46:10;;;;;;;0.00;0.00;;;;;;;11.66;91.91;99538.03;4868594;29;20073;-75
2024/04/07 18:48:36;;;;;;;0.00;0.00;;;;;;;11.52;91.93;99529.75;4842340;29;20540;-75
2024/04/07 18:51:02;;;;;;;0.00;0.00;;;;;;;11.54;92.68;99562.31;4851629;29;20523;-74
2024/04/07 19:24:03;;;;;;;;;;;;;;;;;;;;;
2024/04/07 19:27:04;;;;;;;;;;;;;;;;;;;;;
2024/04/07 19:30:57;;;;;;;0.00;0.00;;;;;;;10.01;100.00;99527.94;4818136;29;20523;-75
2024/04/07 19:33:25;;;;;;;0.00;0.00;;;;;;;10.13;100.00;99557.63;4759625;30;20149;-76
2024/04/07 19:40:23;;;;;;;0.00;0.00;;;;;;;9.95;100.00;99546.28;4790850;29;20046;-76
2024/04/07 19:53:38;;;;;;;;;;;;;;;;;;;;;
2024/04/07 19:56:16;;;;;;;;;;;;;;;;;;;;;
2024/04/07 20:09:22;;;;;;;;;;;;;;;;;;;;;
2024/04/07 20:59:41;;;;;;;0.00;0.00;;;;;;;10.00;100.00;99542.69;4849625;29;20084;-76
2024/04/07 21:03:04;;;;;;;0.00;0.00;;;;;;;9.63;100.00;99491.34;4862215;29;20072;-76
2024/04/07 21:06:37;;;;;;;;;;;;;;;;;;;;;
2024/04/07 22:38:28;;;;;;;;;;;;;;;;;;;;;
2024/04/07 22:42:10;;;;;;;;;;;;;;;;;;;;;
2024/04/07 23:23:52;;;;;;;0.00;0.00;;;;;;;9.89;100.00;99481.88;4783704;29;20510;-78
2024/04/07 23:26:17;;;;;;;0.00;0.00;;;;;;;9.94;100.00;99473.66;4814726;29;20083;-76
2024/04/07 23:28:45;;;;;;;0.00;0.00;;;;;;;9.91;100.00;99473.41;4813969;29;20034;-80
2024/04/07 23:31:13;;;;;;;0.00;0.00;;;;;;;10.10;100.00;99498.94;4825380;29;20531;-78
2024/04/07 23:33:50;;;;;;;0.00;0.00;;;;;;;10.04;100.00;99450.09;4830163;29;20068;-78
2024/04/07 23:40:16;;;;;;;;;;;;;;;;;;;;;
2024/04/07 23:42:45;;;;;;;0.00;0.00;;;;;;;9.68;100.00;99431.25;4803281;29;20060;-77
2024/04/07 23:45:16;;;;;;;0.00;0.00;;;;;;;9.75;100.00;99448.97;4859870;29;20073;-77
2024/04/07 23:47:51;;;;;;;0.00;0.00;;;;;;;9.92;100.00;99454.00;4877512;29;20044;-77
2024/04/07 23:50:26;;;;;;;0.00;0.00;;;;;;;9.94;100.00;99449.09;4856436;29;20055;-77
2024/04/07 23:53:25;;;;;;;;;;;;;;;;;;;;;
2024/04/07 23:56:46;;;;;;;;;;;;;;;;;;;;;
